Terminal Aerodrome Forecast
Issued by NWS

Home | Current Version | Previous Version | Graphics & Text | Print | Product List | Glossary Off
Versions: 1 2 3 4 5 6 7 8 9 10 11 12 13 14 15 16

000
FTUS43 KDDC 222340
TAFHYS
TAF
KHYS 222340Z 2300/2324 14006KT 4SM BR BKN004
     FM230600 06004KT P6SM SCT003
     FM230700 04004KT P6SM BKN003
     FM230900 02004KT 1/2SM FZFG BKN002
     FM231500 01005KT P6SM BKN003
     FM231700 03005KT P6SM SCT010=

USA.gov is the U.S. government's official web portal to all federal, state and local government web resources and services.